createdAt,value
2023-01-28T00:00:55.738Z,4.50
2023-01-28T00:01:55.975Z,5.10
2023-01-28T00:02:56.315Z,4.30
2023-01-28T00:03:56.622Z,4.50
2023-01-28T00:04:56.888Z,4.50
2023-01-28T00:05:57.183Z,4.40
2023-01-28T00:06:57.456Z,4.00
2023-01-28T00:07:57.733Z,3.90
2023-01-28T00:08:58.023Z,3.90
2023-01-28T00:09:58.277Z,4.00
2023-01-28T00:10:58.553Z,3.80
2023-01-28T00:11:58.807Z,4.20
2023-01-28T00:12:59.065Z,4.00
2023-01-28T00:13:59.342Z,3.90
2023-01-28T00:14:59.594Z,3.90
2023-01-28T00:15:59.892Z,3.80
2023-01-28T00:17:00.162Z,3.90
2023-01-28T00:18:00.447Z,4.20
2023-01-28T00:19:00.708Z,3.80
2023-01-28T00:20:00.954Z,3.70
2023-01-28T00:21:01.213Z,4.20
2023-01-28T00:22:01.453Z,3.90
2023-01-28T00:23:01.764Z,3.70
2023-01-28T00:24:02.115Z,3.90
2023-01-28T00:25:02.352Z,3.70
2023-01-28T00:26:02.649Z,3.90
2023-01-28T00:27:02.927Z,4.00
2023-01-28T00:28:03.179Z,4.30
2023-01-28T00:29:03.414Z,3.90
2023-01-28T00:30:03.746Z,4.30
2023-01-28T00:31:04.053Z,3.90
2023-01-28T00:32:04.344Z,3.70
2023-01-28T00:33:04.625Z,4.30
2023-01-28T00:34:04.867Z,4.10
2023-01-28T00:35:05.150Z,3.70
2023-01-28T00:36:05.429Z,3.70
2023-01-28T00:37:05.743Z,4.00
2023-01-28T00:38:06.033Z,4.30
2023-01-28T00:39:06.282Z,4.20
2023-01-28T00:40:06.539Z,4.60
2023-01-28T00:41:06.842Z,4.50
2023-01-28T00:42:07.093Z,4.40
2023-01-28T00:43:07.372Z,4.70
2023-01-28T00:44:07.650Z,4.20
2023-01-28T00:45:07.915Z,4.70
2023-01-28T00:46:08.250Z,4.50
2023-01-28T00:47:08.542Z,4.90
2023-01-28T00:48:08.814Z,4.90
2023-01-28T00:49:09.084Z,4.90
2023-01-28T00:50:09.326Z,5.30
2023-01-28T00:51:09.659Z,5.00
2023-01-28T00:52:09.898Z,5.50
2023-01-28T00:53:10.198Z,5.10
2023-01-28T00:54:10.452Z,5.10
2023-01-28T00:55:10.716Z,5.90
2023-01-28T00:56:11.010Z,5.60
2023-01-28T00:57:11.275Z,5.00
2023-01-28T00:58:11.532Z,5.90
2023-01-28T00:59:11.765Z,5.90
2023-01-28T01:00:12.077Z,5.40
2023-01-28T01:01:12.367Z,5.70
2023-01-28T01:02:12.862Z,5.50
2023-01-28T01:03:12.911Z,5.80
2023-01-28T01:04:13.179Z,5.60
2023-01-28T01:05:13.738Z,6.00
2023-01-28T01:06:13.785Z,5.70
2023-01-28T01:07:14.029Z,5.40
2023-01-28T01:08:14.304Z,6.00
2023-01-28T01:09:14.537Z,6.10
2023-01-28T01:10:14.838Z,5.70
2023-01-28T01:11:15.124Z,6.10
2023-01-28T01:12:15.398Z,6.10
2023-01-28T01:13:15.635Z,5.80
2023-01-28T01:14:15.886Z,5.80
2023-01-28T01:15:16.595Z,6.20
2023-01-28T01:16:16.426Z,6.00
2023-01-28T01:17:16.657Z,5.70
2023-01-28T01:18:16.987Z,6.20
2023-01-28T01:19:17.261Z,6.30
2023-01-28T01:20:17.507Z,6.10
2023-01-28T01:21:17.775Z,6.10
2023-01-28T01:22:18.057Z,6.00
2023-01-28T01:23:18.327Z,6.20
2023-01-28T01:24:18.615Z,6.50
2023-01-28T01:25:18.885Z,6.00
2023-01-28T01:26:19.176Z,6.20
2023-01-28T01:27:19.464Z,6.70
2023-01-28T01:28:19.742Z,6.70
2023-01-28T01:29:20.023Z,6.40
2023-01-28T01:30:20.300Z,6.80
2023-01-28T01:31:20.675Z,6.80
2023-01-28T01:32:20.865Z,6.60
2023-01-28T01:33:21.178Z,8.00
2023-01-28T01:34:21.406Z,9.40
2023-01-28T01:35:21.745Z,8.30
2023-01-28T01:36:22.350Z,10.10
2023-01-28T01:37:22.303Z,8.70
2023-01-28T01:38:22.600Z,8.60
2023-01-28T01:39:22.884Z,8.30
2023-01-28T01:40:23.137Z,8.60
2023-01-28T01:41:23.407Z,8.50
2023-01-28T01:42:23.711Z,8.00
2023-01-28T01:43:23.967Z,7.90
2023-01-28T01:44:24.275Z,7.80
2023-01-28T01:45:24.533Z,8.00
2023-01-28T01:46:24.880Z,7.60
2023-01-28T01:47:25.104Z,7.40
2023-01-28T01:48:25.375Z,7.10
2023-01-28T01:49:25.683Z,7.20
2023-01-28T01:50:25.952Z,7.10
2023-01-28T01:51:26.232Z,7.50
2023-01-28T01:52:26.513Z,7.30
2023-01-28T01:53:26.797Z,7.20
2023-01-28T01:54:27.049Z,7.70
2023-01-28T01:55:27.298Z,7.40
2023-01-28T01:56:27.654Z,7.80
2023-01-28T01:57:27.908Z,7.70
2023-01-28T01:58:28.196Z,7.70
2023-01-28T01:59:28.443Z,7.80
2023-01-28T02:00:28.686Z,7.80
2023-01-28T02:01:28.969Z,8.00
2023-01-28T02:02:29.274Z,7.30
2023-01-28T02:03:29.532Z,8.20
2023-01-28T02:04:29.793Z,7.30
2023-01-28T02:05:30.046Z,7.90
2023-01-28T02:06:30.341Z,7.90
2023-01-28T02:07:30.634Z,7.70
2023-01-28T02:08:30.885Z,8.00
2023-01-28T02:09:31.141Z,8.50
2023-01-28T02:10:31.415Z,8.10
2023-01-28T02:11:31.714Z,8.10
2023-01-28T02:12:31.992Z,7.50
2023-01-28T02:13:32.242Z,7.70
2023-01-28T02:14:32.521Z,8.40
2023-01-28T02:15:32.763Z,8.30
2023-01-28T02:16:33.060Z,7.70
2023-01-28T02:17:33.285Z,8.10
2023-01-28T02:18:33.605Z,8.50
2023-01-28T02:19:33.869Z,8.00
2023-01-28T02:20:34.126Z,7.90
2023-01-28T02:21:34.378Z,8.60
2023-01-28T02:22:34.650Z,8.30
2023-01-28T02:23:34.922Z,7.80
2023-01-28T02:24:35.209Z,8.20
2023-01-28T02:25:35.484Z,8.10
2023-01-28T02:26:35.750Z,7.40
2023-01-28T02:27:36.021Z,7.90
2023-01-28T02:28:36.312Z,8.30
2023-01-28T02:29:36.589Z,8.40
2023-01-28T02:30:36.927Z,8.20
2023-01-28T02:31:37.232Z,8.40
2023-01-28T02:32:37.410Z,8.70
2023-01-28T02:33:37.682Z,8.10
2023-01-28T02:34:37.971Z,8.60
2023-01-28T02:35:38.263Z,8.50
2023-01-28T02:36:38.534Z,8.70
2023-01-28T02:37:38.825Z,8.20
2023-01-28T02:38:39.076Z,8.40
2023-01-28T02:39:39.355Z,8.20
2023-01-28T02:40:39.615Z,8.70
2023-01-28T02:41:39.906Z,8.60
2023-01-28T02:42:40.201Z,8.40
2023-01-28T02:43:40.476Z,9.70
2023-01-28T02:44:40.787Z,9.10
2023-01-28T02:45:41.044Z,9.30
2023-01-28T02:46:41.339Z,9.00
2023-01-28T02:47:41.624Z,8.90
2023-01-28T02:48:41.894Z,9.80
2023-01-28T02:49:42.184Z,9.90
2023-01-28T02:50:42.467Z,9.30
2023-01-28T02:51:42.773Z,10.00
2023-01-28T02:52:43.044Z,9.70
2023-01-28T02:53:43.342Z,10.10
2023-01-28T02:54:43.730Z,9.90
2023-01-28T02:55:43.984Z,10.20
2023-01-28T02:56:44.361Z,10.70
2023-01-28T02:57:44.656Z,10.30
2023-01-28T02:58:44.970Z,10.50
2023-01-28T02:59:45.276Z,10.10
2023-01-28T03:00:45.525Z,10.20
2023-01-28T03:01:45.976Z,11.10
2023-01-28T03:02:46.158Z,10.20
2023-01-28T03:03:46.422Z,10.70
2023-01-28T03:04:46.704Z,10.60
2023-01-28T03:05:46.994Z,10.80
2023-01-28T03:06:47.411Z,11.50
2023-01-28T03:07:47.563Z,10.80
2023-01-28T03:08:47.906Z,11.50
2023-01-28T03:09:48.205Z,11.20
2023-01-28T03:10:48.476Z,10.90
2023-01-28T03:11:48.858Z,10.90
2023-01-28T03:12:49.142Z,11.10
2023-01-28T03:13:49.440Z,12.10
2023-01-28T03:14:49.740Z,11.60
2023-01-28T03:15:50.071Z,11.60
2023-01-28T03:16:50.355Z,12.50
2023-01-28T03:17:50.660Z,13.00
2023-01-28T03:18:50.986Z,12.10
2023-01-28T03:19:51.282Z,12.80
2023-01-28T03:20:51.589Z,12.50
2023-01-28T03:21:51.874Z,12.50
2023-01-28T03:22:52.192Z,11.90
2023-01-28T03:23:52.578Z,12.20
2023-01-28T03:24:52.755Z,11.70
2023-01-28T03:25:53.073Z,11.90
2023-01-28T03:26:53.392Z,11.70
2023-01-28T03:27:53.634Z,11.80
2023-01-28T03:28:53.985Z,12.00
2023-01-28T03:29:54.265Z,12.50
2023-01-28T03:30:54.625Z,12.50
2023-01-28T03:31:54.975Z,12.30
2023-01-28T03:32:55.141Z,12.50
2023-01-28T03:33:55.451Z,12.20
2023-01-28T03:34:55.715Z,13.00
2023-01-28T03:35:56.023Z,13.10
2023-01-28T03:36:56.403Z,12.40
2023-01-28T03:37:56.671Z,13.20
2023-01-28T03:38:57.029Z,12.60
2023-01-28T03:39:57.328Z,13.20
2023-01-28T03:40:57.644Z,14.20
2023-01-28T03:41:57.915Z,14.20
2023-01-28T03:42:58.213Z,14.70
2023-01-28T03:43:58.531Z,14.60
2023-01-28T03:44:58.811Z,14.10
2023-01-28T03:45:59.147Z,14.50
2023-01-28T03:46:59.440Z,15.00
2023-01-28T03:47:59.720Z,14.50
2023-01-28T03:49:00.041Z,15.60
2023-01-28T03:50:00.332Z,14.90
2023-01-28T03:51:00.650Z,15.20
2023-01-28T03:52:00.982Z,14.60
2023-01-28T03:53:01.272Z,14.70
2023-01-28T03:54:01.620Z,14.40
2023-01-28T03:55:01.773Z,14.30
2023-01-28T03:56:02.106Z,14.10
2023-01-28T03:57:02.420Z,14.30
2023-01-28T03:58:02.721Z,14.50
2023-01-28T03:59:03.069Z,14.50
2023-01-28T04:00:03.388Z,15.10
2023-01-28T04:01:03.653Z,15.40
2023-01-28T04:02:04.060Z,14.80
2023-01-28T04:03:04.377Z,15.20
2023-01-28T04:04:04.605Z,15.20
2023-01-28T04:05:04.976Z,15.10
2023-01-28T04:06:05.134Z,15.30
2023-01-28T04:07:05.461Z,14.90
2023-01-28T04:08:05.752Z,14.90
2023-01-28T04:09:06.112Z,14.70
2023-01-28T04:10:06.410Z,15.70
2023-01-28T04:11:06.673Z,14.80
2023-01-28T04:12:07.010Z,14.80
2023-01-28T04:13:07.328Z,14.70
2023-01-28T04:14:07.604Z,14.10
2023-01-28T04:15:07.863Z,14.90
2023-01-28T04:16:08.224Z,14.50
2023-01-28T04:17:08.543Z,13.70
2023-01-28T04:18:08.833Z,13.80
2023-01-28T04:19:09.125Z,14.70
2023-01-28T04:20:09.412Z,14.50
2023-01-28T04:21:09.714Z,14.20
2023-01-28T04:22:10.041Z,13.70
2023-01-28T04:23:10.353Z,14.30
2023-01-28T04:24:10.724Z,13.50
2023-01-28T04:25:10.919Z,14.30
2023-01-28T04:26:11.212Z,13.30
2023-01-28T04:27:11.534Z,13.40
2023-01-28T04:28:11.856Z,13.60
2023-01-28T04:29:12.113Z,13.20
2023-01-28T04:30:12.482Z,13.80
2023-01-28T04:31:12.768Z,13.90
2023-01-28T04:32:13.080Z,13.70
2023-01-28T04:33:13.386Z,13.30
2023-01-28T04:34:13.701Z,14.00
2023-01-28T04:35:14.256Z,13.30
2023-01-28T04:36:14.213Z,13.20
2023-01-28T04:37:14.570Z,13.80
2023-01-28T04:38:14.836Z,12.90
2023-01-28T04:39:15.162Z,13.20
2023-01-28T04:40:15.445Z,13.20
2023-01-28T04:41:15.711Z,13.00
2023-01-28T04:42:16.047Z,13.30
2023-01-28T04:43:16.365Z,12.30
2023-01-28T04:44:16.662Z,12.80
2023-01-28T04:45:17.255Z,13.10
2023-01-28T04:46:17.207Z,13.20
2023-01-28T04:47:17.499Z,13.10
2023-01-28T04:48:17.792Z,13.20
2023-01-28T04:49:18.073Z,13.10
2023-01-28T04:50:18.353Z,12.90
2023-01-28T04:51:18.700Z,13.30
2023-01-28T04:52:19.001Z,12.90
2023-01-28T04:53:19.300Z,13.70
2023-01-28T04:54:19.582Z,13.40
2023-01-28T04:55:19.920Z,13.30
2023-01-28T04:56:20.244Z,12.90
2023-01-28T04:57:20.515Z,14.10
2023-01-28T04:58:20.799Z,13.40
2023-01-28T04:59:21.122Z,13.30
2023-01-28T05:00:21.405Z,13.70
2023-01-28T05:01:21.724Z,13.50
2023-01-28T05:02:22.060Z,12.30
2023-01-28T05:03:22.314Z,12.70
2023-01-28T05:04:22.669Z,12.60
2023-01-28T05:05:22.992Z,12.20
2023-01-28T05:06:23.319Z,12.70
2023-01-28T05:07:23.641Z,12.40
2023-01-28T05:08:23.968Z,12.70
2023-01-28T05:09:24.297Z,12.70
2023-01-28T05:10:24.581Z,11.80
2023-01-28T05:11:24.885Z,12.50
2023-01-28T05:12:25.183Z,11.80
2023-01-28T05:13:25.475Z,12.50
2023-01-28T05:14:25.791Z,12.20
2023-01-28T05:15:26.137Z,11.80
2023-01-28T05:16:26.454Z,11.80
2023-01-28T05:17:26.857Z,12.20
2023-01-28T05:18:27.045Z,12.30
2023-01-28T05:19:27.626Z,12.10
2023-01-28T05:20:27.655Z,11.90
2023-01-28T05:21:27.972Z,12.50
2023-01-28T05:22:28.290Z,12.30
2023-01-28T05:23:28.589Z,12.00
2023-01-28T05:24:28.985Z,12.30
2023-01-28T05:25:29.193Z,11.90
2023-01-28T05:26:29.506Z,12.10
2023-01-28T05:27:29.864Z,11.90
2023-01-28T05:28:30.172Z,11.80
2023-01-28T05:29:30.481Z,12.20
2023-01-28T05:30:30.837Z,12.30
2023-01-28T05:31:31.135Z,12.60
2023-01-28T05:32:31.563Z,11.40
2023-01-28T05:33:31.718Z,12.00
2023-01-28T05:34:32.028Z,11.90
2023-01-28T05:35:32.309Z,11.60
2023-01-28T05:36:32.639Z,11.50
2023-01-28T05:37:32.959Z,11.60
2023-01-28T05:38:33.280Z,11.10
2023-01-28T05:39:33.565Z,10.90
2023-01-28T05:40:33.910Z,11.10
2023-01-28T05:41:34.213Z,10.90
2023-01-28T05:42:34.542Z,11.50
2023-01-28T05:43:34.844Z,11.30
2023-01-28T05:44:35.141Z,10.70
2023-01-28T05:45:35.540Z,10.60
2023-01-28T05:46:35.742Z,11.20
2023-01-28T05:47:36.022Z,11.40
2023-01-28T05:48:36.383Z,11.10
2023-01-28T05:49:36.595Z,10.80
2023-01-28T05:50:36.864Z,11.50
2023-01-28T05:51:37.213Z,10.90
2023-01-28T05:52:37.514Z,10.90
2023-01-28T05:53:37.835Z,10.90
2023-01-28T05:54:38.140Z,10.40
2023-01-28T05:55:38.432Z,11.10
2023-01-28T05:56:38.767Z,11.20
2023-01-28T05:57:39.141Z,10.80
2023-01-28T05:58:39.322Z,10.80
2023-01-28T05:59:39.677Z,11.10
2023-01-28T06:00:39.992Z,11.00
2023-01-28T06:01:40.358Z,10.70
2023-01-28T06:02:40.711Z,10.40
2023-01-28T06:03:40.920Z,10.30
2023-01-28T06:04:41.239Z,10.80
2023-01-28T06:05:41.589Z,10.40
2023-01-28T06:06:41.889Z,10.10
2023-01-28T06:07:42.232Z,9.90
2023-01-28T06:08:42.509Z,9.60
2023-01-28T06:09:42.811Z,9.90
2023-01-28T06:10:43.082Z,10.10
2023-01-28T06:11:43.429Z,9.80
2023-01-28T06:12:43.741Z,9.70
2023-01-28T06:13:44.032Z,9.50
2023-01-28T06:14:44.291Z,9.70
2023-01-28T06:15:44.626Z,10.00
2023-01-28T06:16:44.957Z,9.50
2023-01-28T06:17:45.258Z,9.10
2023-01-28T06:18:45.548Z,9.30
2023-01-28T06:19:45.803Z,9.40
2023-01-28T06:20:46.142Z,9.00
2023-01-28T06:21:46.458Z,8.60
2023-01-28T06:22:46.758Z,8.70
2023-01-28T06:23:47.024Z,8.80
2023-01-28T06:24:47.324Z,9.30
2023-01-28T06:25:47.595Z,9.00
2023-01-28T06:26:47.912Z,9.00
2023-01-28T06:27:48.246Z,8.50
2023-01-28T06:28:48.515Z,9.10
2023-01-28T06:29:48.819Z,9.00
2023-01-28T06:30:49.114Z,9.40
2023-01-28T06:31:49.429Z,9.60
2023-01-28T06:32:49.694Z,9.10
2023-01-28T06:33:50.008Z,9.60
2023-01-28T06:34:50.329Z,9.00
2023-01-28T06:35:50.637Z,9.50
2023-01-28T06:36:50.959Z,9.50
2023-01-28T06:37:51.277Z,10.10
2023-01-28T06:38:51.575Z,9.80
2023-01-28T06:39:51.910Z,10.10
2023-01-28T06:40:52.229Z,9.90
2023-01-28T06:41:52.526Z,9.90
2023-01-28T06:42:52.804Z,10.30
2023-01-28T06:43:53.158Z,9.60
2023-01-28T06:44:53.423Z,9.70
2023-01-28T06:45:53.715Z,10.20
2023-01-28T06:46:54.032Z,10.00
2023-01-28T06:47:54.330Z,10.10
2023-01-28T06:48:54.613Z,8.60
2023-01-28T06:49:54.950Z,8.90
2023-01-28T06:50:55.254Z,9.10
2023-01-28T06:51:55.522Z,9.40
2023-01-28T06:52:55.857Z,9.30
2023-01-28T06:53:56.196Z,9.20
2023-01-28T06:54:56.488Z,9.80
2023-01-28T06:55:56.796Z,10.00
2023-01-28T06:56:57.138Z,8.90
2023-01-28T06:57:57.408Z,9.60
2023-01-28T06:58:57.723Z,9.60
2023-01-28T06:59:58.051Z,9.20
2023-01-28T07:00:58.368Z,9.10
2023-01-28T07:01:58.778Z,9.40
2023-01-28T07:02:58.989Z,9.30
2023-01-28T07:03:59.304Z,9.40
2023-01-28T07:04:59.624Z,9.30
2023-01-28T07:05:59.937Z,8.90
2023-01-28T07:07:00.220Z,8.60
2023-01-28T07:08:00.528Z,8.30
2023-01-28T07:09:00.821Z,9.20
2023-01-28T07:10:01.131Z,8.60
2023-01-28T07:11:01.391Z,9.20
2023-01-28T07:12:01.695Z,9.40
2023-01-28T07:13:02.021Z,8.60
2023-01-28T07:14:02.362Z,9.80
2023-01-28T07:15:02.567Z,8.80
2023-01-28T07:16:02.842Z,8.60
2023-01-28T07:17:03.238Z,9.00
2023-01-28T07:18:03.402Z,9.60
2023-01-28T07:19:03.715Z,9.10
2023-01-28T07:20:04.068Z,9.20
2023-01-28T07:21:04.347Z,8.80
2023-01-28T07:22:04.678Z,8.90
2023-01-28T07:23:04.999Z,9.30
2023-01-28T07:24:05.341Z,9.20
2023-01-28T07:25:05.602Z,9.30
2023-01-28T07:26:05.962Z,9.20
2023-01-28T07:27:06.261Z,9.10
2023-01-28T07:28:06.580Z,9.40
2023-01-28T07:29:06.885Z,9.20
2023-01-28T07:30:07.343Z,9.50
2023-01-28T07:31:07.556Z,9.20
2023-01-28T07:32:07.867Z,9.80
2023-01-28T07:33:08.004Z,10.50
2023-01-28T07:34:08.387Z,10.50
2023-01-28T07:35:08.713Z,10.90
2023-01-28T07:36:09.024Z,10.60
2023-01-28T07:37:09.430Z,10.40
2023-01-28T07:38:09.651Z,10.70
2023-01-28T07:39:09.857Z,11.20
2023-01-28T07:40:10.217Z,11.70
2023-01-28T07:41:10.436Z,10.20
2023-01-28T07:42:10.779Z,10.50
2023-01-28T07:43:10.985Z,9.50
2023-01-28T07:44:11.265Z,9.30
2023-01-28T07:45:11.636Z,9.60
2023-01-28T07:46:11.892Z,9.30
2023-01-28T07:47:12.335Z,9.50
2023-01-28T07:48:12.527Z,9.60
2023-01-28T07:49:12.713Z,9.70
2023-01-28T07:50:13.580Z,9.60
2023-01-28T07:51:13.302Z,9.50
2023-01-28T07:52:13.603Z,9.70
2023-01-28T07:53:13.895Z,10.30
2023-01-28T07:54:14.116Z,9.60
2023-01-28T07:55:14.525Z,10.20
2023-01-28T07:56:14.685Z,9.60
2023-01-28T07:57:15.025Z,10.30
2023-01-28T07:58:15.339Z,9.70
2023-01-28T07:59:15.530Z,10.90
2023-01-28T08:00:16.194Z,9.60
2023-01-28T08:01:16.197Z,9.70
2023-01-28T08:02:16.342Z,10.10
2023-01-28T08:03:16.687Z,10.80
2023-01-28T08:04:17.154Z,10.20
2023-01-28T08:05:17.409Z,10.30
2023-01-28T08:06:17.566Z,10.30
2023-01-28T08:07:17.971Z,10.70
2023-01-28T08:08:18.145Z,10.80
2023-01-28T08:09:18.403Z,10.20
2023-01-28T08:10:18.725Z,10.80
2023-01-28T08:11:19.053Z,10.10
2023-01-28T08:12:19.384Z,10.30
2023-01-28T08:13:19.697Z,10.90
2023-01-28T08:14:20.039Z,10.20
2023-01-28T08:15:20.270Z,10.30
2023-01-28T08:16:20.479Z,10.30
2023-01-28T08:17:20.783Z,10.30
2023-01-28T08:18:21.049Z,10.20
2023-01-28T08:19:21.379Z,10.40
2023-01-28T08:20:21.737Z,10.30
2023-01-28T08:21:21.926Z,10.20
2023-01-28T08:22:22.173Z,10.40
2023-01-28T08:23:24.152Z,10.10
2023-01-28T08:24:22.882Z,9.90
2023-01-28T08:25:23.071Z,10.00
2023-01-28T08:26:23.384Z,8.40
2023-01-28T08:27:23.652Z,9.10
2023-01-28T08:28:23.965Z,9.40
2023-01-28T08:29:24.342Z,9.30
2023-01-28T08:30:24.690Z,8.60
2023-01-28T08:31:24.998Z,8.80
2023-01-28T08:32:25.269Z,8.30
2023-01-28T08:33:25.583Z,8.00
2023-01-28T08:34:25.871Z,9.40
2023-01-28T08:35:26.223Z,8.60
2023-01-28T08:36:26.485Z,7.70
2023-01-28T08:37:26.869Z,8.40
2023-01-28T08:38:27.138Z,8.40
2023-01-28T08:39:27.480Z,8.90
2023-01-28T08:40:27.753Z,8.80
2023-01-28T08:41:28.100Z,8.70
2023-01-28T08:42:28.354Z,9.20
2023-01-28T08:43:28.684Z,9.10
2023-01-28T08:44:29.028Z,9.60
2023-01-28T08:45:29.372Z,10.40
2023-01-28T08:46:29.594Z,13.10
2023-01-28T08:47:29.811Z,12.60
2023-01-28T08:48:30.130Z,15.40
2023-01-28T08:49:30.450Z,15.90
2023-01-28T08:50:30.788Z,12.70
2023-01-28T08:51:31.139Z,14.00
2023-01-28T08:52:31.332Z,15.70
2023-01-28T08:53:31.552Z,12.60
2023-01-28T08:54:31.833Z,13.20
2023-01-28T08:55:32.062Z,13.70
2023-01-28T08:56:32.362Z,13.10
2023-01-28T08:57:32.679Z,11.70
2023-01-28T08:58:32.908Z,10.30
2023-01-28T08:59:33.144Z,10.70
2023-01-28T09:00:33.509Z,10.10
2023-01-28T09:01:33.799Z,9.30
2023-01-28T09:02:33.999Z,10.20
2023-01-28T09:03:34.368Z,9.60
2023-01-28T09:04:34.691Z,11.50
2023-01-28T09:05:34.950Z,10.00
2023-01-28T09:06:35.194Z,11.20
2023-01-28T09:07:35.412Z,11.80
2023-01-28T09:08:35.773Z,11.10
2023-01-28T09:09:35.990Z,10.80
2023-01-28T09:10:36.286Z,12.10
2023-01-28T09:11:36.493Z,11.90
2023-01-28T09:12:36.853Z,12.20
2023-01-28T09:13:37.161Z,12.00
2023-01-28T09:14:37.372Z,13.30
2023-01-28T09:15:37.603Z,14.10
2023-01-28T09:16:37.793Z,14.80
2023-01-28T09:17:38.075Z,13.60
2023-01-28T09:18:38.384Z,12.70
2023-01-28T09:19:38.647Z,13.60
2023-01-28T09:20:39.036Z,12.30
2023-01-28T09:21:39.233Z,13.10
2023-01-28T09:22:39.568Z,12.40
2023-01-28T09:23:39.898Z,13.10
2023-01-28T09:24:40.205Z,12.30
2023-01-28T09:25:40.496Z,11.40
2023-01-28T09:26:40.712Z,11.40
2023-01-28T09:27:41.043Z,10.80
2023-01-28T09:28:41.374Z,12.60
2023-01-28T09:29:41.666Z,11.20
2023-01-28T09:30:41.988Z,15.60
2023-01-28T09:31:42.277Z,16.20
2023-01-28T09:32:42.488Z,13.50
2023-01-28T09:33:42.833Z,13.20
2023-01-28T09:34:43.033Z,14.50
2023-01-28T09:35:43.323Z,14.70
2023-01-28T09:36:43.543Z,17.70
2023-01-28T09:37:43.862Z,19.20
2023-01-28T09:38:44.243Z,10.90
2023-01-28T09:39:44.503Z,11.60
2023-01-28T09:40:44.772Z,10.50
2023-01-28T09:41:44.965Z,11.20
2023-01-28T09:42:45.229Z,10.20
2023-01-28T09:43:45.545Z,9.70
2023-01-28T09:44:45.896Z,9.90
2023-01-28T09:45:46.239Z,10.60
2023-01-28T09:46:46.508Z,10.70
2023-01-28T09:47:46.695Z,10.70
2023-01-28T09:48:47.065Z,10.60
2023-01-28T09:49:47.304Z,10.20
2023-01-28T09:50:47.529Z,10.10
2023-01-28T09:51:48.181Z,10.90
2023-01-28T09:52:48.062Z,10.80
2023-01-28T09:53:49.942Z,11.00
2023-01-28T09:54:48.489Z,10.50
2023-01-28T09:55:48.827Z,10.50
2023-01-28T09:56:49.184Z,11.10
2023-01-28T09:57:49.369Z,10.60
2023-01-28T09:58:49.636Z,11.10
2023-01-28T09:59:50.009Z,10.00
2023-01-28T10:00:50.154Z,8.70
2023-01-28T10:01:50.386Z,9.90
2023-01-28T10:02:50.661Z,9.80
2023-01-28T10:03:51.017Z,9.50
2023-01-28T10:04:51.333Z,8.80
2023-01-28T10:05:51.651Z,8.10
2023-01-28T10:06:52.011Z,8.50
2023-01-28T10:07:52.261Z,8.20
2023-01-28T10:08:52.486Z,8.30
2023-01-28T10:09:52.746Z,7.50
2023-01-28T10:10:53.065Z,8.00
2023-01-28T10:11:53.344Z,7.60
2023-01-28T10:12:53.704Z,8.50
2023-01-28T10:13:53.994Z,8.60
2023-01-28T10:14:54.287Z,7.90
2023-01-28T10:15:54.659Z,7.80
2023-01-28T10:16:55.005Z,7.80
2023-01-28T10:18:07.362Z,7.30
2023-01-28T10:18:56.624Z,7.20
2023-01-28T10:19:55.837Z,7.10
2023-01-28T10:20:56.224Z,6.70
2023-01-28T10:21:56.421Z,6.50
2023-01-28T10:22:56.755Z,6.70
2023-01-28T10:23:56.968Z,7.30
2023-01-28T10:24:57.272Z,7.40
2023-01-28T10:25:57.602Z,8.40
2023-01-28T10:26:57.958Z,8.10
2023-01-28T10:27:58.256Z,7.20
2023-01-28T10:28:58.552Z,12.20
2023-01-28T10:29:58.925Z,7.20
2023-01-28T10:30:59.206Z,7.10
2023-01-28T10:31:59.500Z,12.70
2023-01-28T10:32:59.587Z,6.80
2023-01-28T10:33:59.962Z,6.80
2023-01-28T10:35:00.276Z,6.70
2023-01-28T10:36:00.611Z,7.40
2023-01-28T10:37:00.794Z,6.60
2023-01-28T10:38:01.113Z,7.50
2023-01-28T10:39:01.402Z,8.70
2023-01-28T10:40:01.789Z,6.50
2023-01-28T10:41:02.111Z,6.80
2023-01-28T10:42:02.442Z,6.90
2023-01-28T10:43:02.720Z,7.50
2023-01-28T10:44:03.062Z,7.20
2023-01-28T10:45:03.362Z,7.30
2023-01-28T10:46:03.771Z,8.20
2023-01-28T10:47:03.944Z,7.00
2023-01-28T10:48:04.275Z,8.00
2023-01-28T10:49:04.567Z,7.30
2023-01-28T10:50:04.937Z,7.80
2023-01-28T10:51:05.244Z,8.00
2023-01-28T10:52:05.561Z,8.20
2023-01-28T10:53:05.866Z,9.70
2023-01-28T10:54:06.202Z,13.60
2023-01-28T10:55:06.559Z,13.40
2023-01-28T10:56:06.875Z,9.80
2023-01-28T10:57:07.126Z,10.50
2023-01-28T10:58:07.305Z,8.70
2023-01-28T10:59:07.562Z,7.20
2023-01-28T11:00:07.963Z,9.00
2023-01-28T11:01:08.364Z,8.20
2023-01-28T11:02:08.562Z,7.60
2023-01-28T11:03:08.666Z,7.90
2023-01-28T11:04:09.163Z,7.40
2023-01-28T11:05:09.363Z,8.50
2023-01-28T11:06:09.564Z,8.70
2023-01-28T11:07:09.985Z,9.70
2023-01-28T11:08:10.147Z,9.20
2023-01-28T11:09:10.475Z,7.50
2023-01-28T11:10:10.830Z,7.40
2023-01-28T11:11:11.193Z,8.00
2023-01-28T11:12:11.367Z,8.00
2023-01-28T11:13:11.697Z,7.50
2023-01-28T11:14:12.053Z,7.80
2023-01-28T11:15:12.379Z,7.10
2023-01-28T11:16:12.657Z,7.50
2023-01-28T11:17:13.002Z,7.30
2023-01-28T11:18:13.290Z,7.30
2023-01-28T11:19:13.597Z,7.80
2023-01-28T11:20:14.336Z,7.20
2023-01-28T11:21:14.171Z,7.10
2023-01-28T11:22:14.504Z,7.30
2023-01-28T11:23:14.791Z,7.50
2023-01-28T11:24:15.170Z,6.80
2023-01-28T11:25:15.349Z,7.10
2023-01-28T11:26:15.699Z,7.30
2023-01-28T11:27:15.917Z,6.90
2023-01-28T11:28:16.231Z,6.80
2023-01-28T11:29:16.543Z,7.50
2023-01-28T11:30:17.176Z,7.20
2023-01-28T11:31:17.170Z,7.00
2023-01-28T11:32:17.512Z,12.60
2023-01-28T11:33:17.739Z,8.30
2023-01-28T11:34:18.036Z,8.50
2023-01-28T11:35:18.396Z,9.10
2023-01-28T11:36:18.781Z,9.60
2023-01-28T11:37:18.983Z,11.70
2023-01-28T11:38:19.187Z,14.70
2023-01-28T11:39:19.533Z,13.20
2023-01-28T11:40:20.784Z,14.70
2023-01-28T11:41:20.073Z,11.10
2023-01-28T11:42:20.320Z,12.90
2023-01-28T11:43:20.598Z,12.00
2023-01-28T11:44:20.809Z,10.30
2023-01-28T11:45:21.147Z,12.20
2023-01-28T11:46:21.476Z,10.10
2023-01-28T11:47:21.687Z,10.50
2023-01-28T11:48:21.956Z,9.60
2023-01-28T11:49:22.267Z,11.30
2023-01-28T11:50:22.570Z,11.80
2023-01-28T11:51:23.797Z,12.00
2023-01-28T11:52:23.074Z,10.60
2023-01-28T11:53:23.376Z,11.50
2023-01-28T11:54:23.752Z,10.80
2023-01-28T11:55:23.973Z,11.00
2023-01-28T11:56:24.262Z,11.50
2023-01-28T11:57:24.653Z,11.30
2023-01-28T11:58:24.865Z,11.50
2023-01-28T11:59:25.201Z,11.70
2023-01-28T12:00:25.536Z,11.50
2023-01-28T12:01:25.819Z,11.60
2023-01-28T12:02:26.044Z,11.10
2023-01-28T12:03:26.372Z,11.60
2023-01-28T12:04:26.980Z,12.00
2023-01-28T12:05:26.997Z,12.00
2023-01-28T12:06:27.278Z,11.60
2023-01-28T12:07:27.633Z,11.00
2023-01-28T12:08:27.857Z,11.00
2023-01-28T12:09:28.057Z,11.30
2023-01-28T12:10:28.317Z,10.70
2023-01-28T12:11:28.587Z,10.50
2023-01-28T12:12:28.814Z,11.00
2023-01-28T12:13:29.155Z,11.50
2023-01-28T12:14:29.501Z,12.10
2023-01-28T12:15:29.767Z,12.40
2023-01-28T12:16:30.157Z,12.50
2023-01-28T12:17:30.376Z,11.60
2023-01-28T12:18:30.594Z,12.00
2023-01-28T12:19:30.909Z,15.70
2023-01-28T12:20:31.162Z,13.10
2023-01-28T12:21:31.436Z,11.30
2023-01-28T12:22:31.631Z,13.10
2023-01-28T12:23:31.902Z,14.10
2023-01-28T12:24:32.183Z,12.30
2023-01-28T12:25:32.394Z,11.70
2023-01-28T12:26:32.612Z,10.90
2023-01-28T12:27:32.860Z,10.80
2023-01-28T12:28:33.066Z,10.40
2023-01-28T12:29:33.409Z,10.10
2023-01-28T12:30:33.724Z,10.30
2023-01-28T12:31:34.230Z,10.10
2023-01-28T12:32:34.305Z,11.30
2023-01-28T12:33:34.642Z,11.90
2023-01-28T12:34:34.983Z,12.80
2023-01-28T12:35:35.331Z,12.70
2023-01-28T12:36:35.558Z,10.90
2023-01-28T12:37:35.783Z,11.70
2023-01-28T12:38:36.096Z,10.60
2023-01-28T12:39:36.367Z,12.80
2023-01-28T12:40:36.685Z,12.30
2023-01-28T12:41:36.947Z,12.00
2023-01-28T12:42:37.301Z,11.50
2023-01-28T12:43:37.610Z,10.90
2023-01-28T12:44:37.836Z,12.40
2023-01-28T12:45:38.126Z,15.90
2023-01-28T12:46:38.327Z,18.00
2023-01-28T12:47:38.637Z,13.70
2023-01-28T12:48:38.904Z,10.50
2023-01-28T12:49:39.231Z,10.30
2023-01-28T12:50:39.549Z,12.20
2023-01-28T12:51:39.806Z,14.00
2023-01-28T12:52:40.160Z,13.70
2023-01-28T12:53:40.513Z,15.10
2023-01-28T12:54:40.817Z,16.40
2023-01-28T12:55:41.071Z,12.60
2023-01-28T12:56:41.415Z,13.50
2023-01-28T12:57:41.613Z,11.90
2023-01-28T12:58:41.854Z,11.30
2023-01-28T12:59:42.095Z,13.80
2023-01-28T13:00:42.373Z,13.80
2023-01-28T13:01:42.646Z,11.60
2023-01-28T13:02:42.885Z,10.80
2023-01-28T13:03:43.101Z,11.30
2023-01-28T13:04:43.409Z,10.30
2023-01-28T13:05:43.635Z,10.50
2023-01-28T13:06:43.935Z,10.50
2023-01-28T13:07:44.153Z,10.40
2023-01-28T13:08:44.470Z,9.70